createdAt,value
2023-04-26T00:02:18.323Z,4.05
2023-04-26T00:04:46.405Z,5.25
2023-04-26T00:07:13.866Z,3.88
2023-04-26T00:09:42.131Z,4.78
2023-04-26T00:12:08.740Z,4.60
2023-04-26T00:14:35.365Z,4.70
2023-04-26T00:17:04.345Z,4.95
2023-04-26T00:19:30.865Z,4.97
2023-04-26T00:21:57.622Z,5.60
2023-04-26T00:24:24.142Z,6.38
2023-04-26T00:26:53.899Z,6.75
2023-04-26T00:29:20.564Z,6.63
2023-04-26T00:31:47.508Z,6.85
2023-04-26T00:34:14.358Z,6.15
2023-04-26T00:36:40.910Z,6.60
2023-04-26T00:39:08.746Z,5.78
2023-04-26T00:41:35.321Z,6.00
2023-04-26T00:44:02.020Z,4.95
2023-04-26T00:46:29.346Z,5.80
2023-04-26T00:48:56.141Z,6.85
2023-04-26T00:51:22.712Z,7.07
2023-04-26T00:53:49.552Z,6.82
2023-04-26T00:56:16.493Z,5.45
2023-04-26T00:58:43.366Z,4.88
2023-04-26T01:01:10.068Z,4.97
2023-04-26T01:03:37.237Z,6.30
2023-04-26T01:06:04.126Z,5.30
2023-04-26T01:08:30.692Z,6.35
2023-04-26T01:10:58.932Z,5.90
2023-04-26T01:13:26.206Z,6.35
2023-04-26T01:15:54.707Z,6.13
2023-04-26T01:18:21.408Z,6.13
2023-04-26T01:20:48.443Z,6.40
2023-04-26T01:23:14.962Z,8.10
2023-04-26T01:25:41.570Z,7.72
2023-04-26T01:28:09.288Z,6.55
2023-04-26T01:30:36.153Z,6.53
2023-04-26T01:33:03.187Z,7.82
2023-04-26T01:35:29.874Z,6.90
2023-04-26T01:37:56.496Z,9.27
2023-04-26T01:40:23.367Z,7.53
2023-04-26T01:42:49.900Z,7.20
2023-04-26T01:45:17.448Z,7.47
2023-04-26T01:48:02.340Z,9.18
2023-04-26T01:50:32.057Z,9.05
2023-04-26T01:52:58.744Z,8.98
2023-04-26T01:55:25.276Z,8.60
2023-04-26T01:57:51.925Z,8.95
2023-04-26T02:00:18.913Z,9.05
2023-04-26T02:02:48.964Z,8.70
2023-04-26T02:05:15.674Z,8.60
2023-04-26T02:07:42.298Z,8.98
2023-04-26T02:10:09.142Z,10.20
2023-04-26T02:12:35.846Z,10.40
2023-04-26T02:15:02.579Z,8.73
2023-04-26T02:17:29.221Z,10.38
2023-04-26T02:19:56.706Z,10.57
2023-04-26T02:22:25.074Z,10.25
2023-04-26T02:24:52.800Z,9.40
2023-04-26T02:27:20.159Z,9.00
2023-04-26T02:29:46.908Z,11.07
2023-04-26T02:32:14.226Z,10.05
2023-04-26T02:34:41.185Z,9.88
2023-04-26T02:37:08.973Z,12.93
2023-04-26T02:39:36.631Z,11.02
2023-04-26T02:42:08.450Z,9.43
2023-04-26T02:44:35.039Z,9.75
2023-04-26T02:47:02.551Z,11.63
2023-04-26T02:49:30.486Z,11.98
2023-04-26T02:51:57.025Z,10.65
2023-04-26T02:54:24.114Z,11.82
2023-04-26T02:56:51.774Z,9.50
2023-04-26T02:59:18.271Z,9.77
2023-04-26T03:01:45.229Z,9.75
2023-04-26T03:04:11.880Z,10.45
2023-04-26T03:06:39.140Z,9.30
2023-04-26T03:09:05.933Z,9.40
2023-04-26T03:11:32.814Z,9.05
2023-04-26T03:13:59.362Z,10.20
2023-04-26T03:16:27.873Z,8.73
2023-04-26T03:18:54.756Z,8.15
2023-04-26T03:21:21.901Z,8.20
2023-04-26T03:23:48.577Z,9.60
2023-04-26T03:26:15.880Z,8.00
2023-04-26T03:28:42.593Z,7.75
2023-04-26T03:31:09.271Z,8.20
2023-04-26T03:33:35.991Z,7.68
2023-04-26T03:36:02.598Z,7.90
2023-04-26T03:38:29.118Z,8.38
2023-04-26T03:40:55.774Z,9.45
2023-04-26T03:43:23.353Z,7.97
2023-04-26T03:45:50.448Z,7.68
2023-04-26T03:48:17.249Z,8.15
2023-04-26T03:50:45.986Z,7.10
2023-04-26T03:53:13.009Z,6.68
2023-04-26T03:55:39.744Z,10.23
2023-04-26T03:58:08.097Z,11.55
2023-04-26T04:00:37.563Z,10.95
2023-04-26T04:03:05.451Z,9.40
2023-04-26T04:05:32.576Z,8.95
2023-04-26T04:07:59.573Z,9.27
2023-04-26T04:10:26.351Z,8.27
2023-04-26T04:12:54.104Z,9.40
2023-04-26T04:15:21.208Z,9.70
2023-04-26T04:17:48.784Z,9.32
2023-04-26T04:20:15.574Z,7.60
2023-04-26T04:22:42.657Z,8.88
2023-04-26T04:25:13.759Z,8.13
2023-04-26T04:27:42.588Z,9.95
2023-04-26T04:30:09.916Z,11.88
2023-04-26T04:32:36.966Z,11.27
2023-04-26T04:35:03.692Z,11.82
2023-04-26T04:37:33.526Z,12.93
2023-04-26T04:40:00.767Z,11.07
2023-04-26T04:42:28.237Z,11.98
2023-04-26T04:44:57.501Z,12.10
2023-04-26T04:47:25.732Z,12.57
2023-04-26T04:49:53.851Z,12.27
2023-04-26T04:52:23.704Z,11.70
2023-04-26T04:54:50.357Z,12.20
2023-04-26T04:57:17.057Z,13.18
2023-04-26T04:59:45.387Z,13.93
2023-04-26T05:02:12.452Z,14.63
2023-04-26T05:04:39.393Z,14.82
2023-04-26T05:07:06.719Z,15.52
2023-04-26T05:09:34.429Z,15.52
2023-04-26T05:12:01.549Z,14.75
2023-04-26T05:14:29.878Z,13.00
2023-04-26T05:16:56.649Z,12.55
2023-04-26T05:19:23.377Z,11.95
2023-04-26T05:21:50.047Z,14.10
2023-04-26T05:24:16.862Z,13.85
2023-04-26T05:26:43.777Z,13.30
2023-04-26T05:29:29.998Z,15.07
2023-04-26T05:32:22.483Z,14.23
2023-04-26T05:34:57.073Z,15.50
2023-04-26T05:37:23.622Z,15.90
2023-04-26T05:39:51.004Z,15.38
2023-04-26T05:42:18.183Z,15.70
2023-04-26T05:44:45.088Z,14.98
2023-04-26T05:47:12.383Z,16.70
2023-04-26T05:49:38.934Z,14.45
2023-04-26T05:52:05.609Z,14.55
2023-04-26T05:54:32.292Z,16.10
2023-04-26T05:56:59.344Z,14.88
2023-04-26T05:59:28.122Z,16.80
2023-04-26T06:01:54.813Z,15.73
2023-04-26T06:04:21.550Z,16.95
2023-04-26T06:07:00.703Z,14.82
2023-04-26T06:09:27.394Z,14.55
2023-04-26T06:11:53.979Z,14.65
2023-04-26T06:14:29.990Z,15.73
2023-04-26T06:16:59.307Z,14.10
2023-04-26T06:19:27.603Z,13.52
2023-04-26T06:21:55.393Z,14.93
2023-04-26T06:24:24.983Z,13.63
2023-04-26T06:26:52.022Z,13.65
2023-04-26T06:29:18.671Z,13.60
2023-04-26T06:31:46.419Z,13.68
2023-04-26T06:34:14.707Z,14.48
2023-04-26T06:36:41.663Z,12.40
2023-04-26T06:39:08.819Z,12.95
2023-04-26T06:41:35.570Z,12.18
2023-04-26T06:44:02.281Z,10.18
2023-04-26T06:46:31.229Z,10.38
2023-04-26T06:48:57.836Z,11.50
2023-04-26T06:51:25.145Z,11.38
2023-04-26T06:53:52.846Z,9.68
2023-04-26T06:56:19.692Z,8.73
2023-04-26T06:59:04.038Z,9.25
2023-04-26T07:01:33.727Z,8.35
2023-04-26T07:04:03.287Z,6.90
2023-04-26T07:06:34.055Z,6.75
2023-04-26T07:09:02.499Z,8.18
2023-04-26T07:11:29.566Z,6.38
2023-04-26T07:13:56.913Z,6.22
2023-04-26T07:16:23.885Z,6.50
2023-04-26T07:18:51.696Z,5.47
2023-04-26T07:21:18.388Z,6.28
2023-04-26T07:23:45.045Z,6.78
2023-04-26T07:26:11.904Z,6.63
2023-04-26T07:28:38.413Z,6.30
2023-04-26T07:31:07.831Z,6.50
2023-04-26T07:33:35.639Z,6.78
2023-04-26T07:36:02.265Z,4.90
2023-04-26T07:38:28.759Z,5.72
2023-04-26T07:40:55.779Z,6.25
2023-04-26T07:43:23.311Z,5.75
2023-04-26T07:45:49.880Z,4.63
2023-04-26T07:48:17.196Z,4.28
2023-04-26T07:50:43.937Z,5.05
2023-04-26T07:53:10.556Z,4.85
2023-04-26T07:55:37.628Z,3.88
2023-04-26T07:58:04.499Z,4.20
2023-04-26T08:00:33.033Z,3.47
2023-04-26T08:02:59.767Z,4.03
2023-04-26T08:05:27.802Z,2.60
2023-04-26T08:07:54.688Z,2.90
2023-04-26T08:10:21.473Z,3.05
2023-04-26T08:12:48.091Z,2.40
2023-04-26T08:15:14.900Z,2.65
2023-04-26T08:17:41.740Z,2.90
2023-04-26T08:20:09.814Z,3.67
2023-04-26T08:22:36.573Z,2.55
2023-04-26T08:25:04.622Z,2.38
2023-04-26T08:27:31.864Z,2.22
2023-04-26T08:29:58.493Z,3.15
2023-04-26T08:32:25.069Z,2.40
2023-04-26T08:34:51.875Z,2.45
2023-04-26T08:37:18.445Z,2.80
2023-04-26T08:39:45.019Z,1.98
2023-04-26T08:42:16.669Z,2.03
2023-04-26T08:44:44.779Z,1.77
2023-04-26T08:47:45.438Z,1.90
2023-04-26T08:50:15.098Z,1.60
2023-04-26T08:52:42.814Z,2.20
2023-04-26T08:55:10.726Z,2.25
2023-04-26T08:57:38.128Z,2.92
2023-04-26T09:00:06.527Z,2.22
2023-04-26T09:02:34.506Z,2.72
2023-04-26T09:05:01.407Z,2.65
2023-04-26T09:07:33.779Z,2.40
2023-04-26T09:10:00.985Z,2.05
2023-04-26T09:12:27.656Z,2.10
2023-04-26T09:14:54.351Z,2.42
2023-04-26T09:17:32.259Z,2.80
2023-04-26T09:20:00.689Z,2.35
2023-04-26T09:22:37.476Z,2.38
2023-04-26T09:25:07.109Z,3.50
2023-04-26T09:27:39.336Z,2.72
2023-04-26T09:30:20.757Z,2.50
2023-04-26T09:32:58.005Z,2.10
2023-04-26T09:35:41.843Z,2.53
2023-04-26T09:38:12.671Z,2.25
2023-04-26T09:40:50.593Z,2.17
2023-04-26T09:43:19.770Z,2.15
2023-04-26T09:45:55.774Z,1.77
2023-04-26T09:48:34.942Z,1.83
2023-04-26T09:51:04.591Z,2.05
2023-04-26T09:53:39.464Z,1.88
2023-04-26T09:56:13.411Z,1.67
2023-04-26T09:59:00.735Z,1.75
2023-04-26T10:01:29.868Z,1.98
2023-04-26T10:03:57.699Z,2.53
2023-04-26T10:06:25.167Z,1.92
2023-04-26T10:08:52.019Z,2.10
2023-04-26T10:11:18.852Z,2.40
2023-04-26T10:13:45.641Z,2.15
2023-04-26T10:16:12.245Z,2.05
2023-04-26T10:18:39.182Z,2.28
2023-04-26T10:21:12.769Z,2.40
2023-04-26T10:23:40.881Z,2.22
2023-04-26T10:26:07.747Z,1.95
2023-04-26T10:29:02.609Z,2.30
2023-04-26T10:32:10.673Z,2.20
2023-04-26T10:34:37.776Z,1.80
2023-04-26T10:37:14.796Z,1.83
2023-04-26T10:39:43.584Z,2.50
2023-04-26T10:42:27.409Z,2.10
2023-04-26T10:44:56.178Z,1.80
2023-04-26T10:47:35.006Z,2.33
2023-04-26T10:50:12.049Z,1.80
2023-04-26T10:53:05.125Z,1.75
2023-04-26T10:55:38.487Z,1.42
2023-04-26T10:58:46.299Z,2.15
2023-04-26T11:01:21.166Z,1.83
2023-04-26T11:04:14.219Z,1.70
2023-04-26T11:06:49.596Z,2.05
2023-04-26T11:09:41.709Z,2.58
2023-04-26T11:12:13.909Z,2.75
2023-04-26T11:14:45.710Z,2.60
2023-04-26T11:17:13.154Z,2.25
2023-04-26T11:19:41.396Z,2.25
2023-04-26T11:22:08.572Z,2.47
2023-04-26T11:24:36.736Z,1.90
2023-04-26T11:27:11.876Z,1.85
2023-04-26T11:29:39.149Z,2.17
2023-04-26T11:32:06.060Z,1.90
2023-04-26T11:34:38.111Z,2.20
2023-04-26T11:37:06.256Z,1.80
2023-04-26T11:39:36.930Z,1.90
2023-04-26T11:42:07.713Z,2.55
2023-04-26T11:44:34.798Z,2.30
2023-04-26T11:47:04.026Z,2.50
2023-04-26T11:49:32.286Z,1.95
2023-04-26T11:51:59.396Z,2.20
2023-04-26T11:54:37.597Z,2.15
2023-04-26T11:57:17.154Z,2.05
2023-04-26T11:59:44.857Z,2.08
2023-04-26T12:02:12.065Z,2.13
2023-04-26T12:04:42.416Z,2.53
2023-04-26T12:07:09.403Z,2.50
2023-04-26T12:09:41.194Z,2.38
2023-04-26T12:12:08.249Z,2.47
2023-04-26T12:14:39.580Z,2.08
2023-04-26T12:17:06.824Z,2.47
2023-04-26T12:19:37.333Z,2.55
2023-04-26T12:22:05.788Z,2.60
2023-04-26T12:24:34.599Z,2.20
2023-04-26T12:27:02.977Z,2.33
2023-04-26T12:29:31.861Z,2.33
2023-04-26T12:31:59.782Z,2.38
2023-04-26T12:34:26.547Z,2.72
2023-04-26T12:36:53.129Z,3.00
2023-04-26T12:39:19.719Z,3.42
2023-04-26T12:41:46.620Z,3.35
2023-04-26T12:44:14.470Z,2.42
2023-04-26T12:46:41.181Z,2.75
2023-04-26T12:49:07.872Z,2.85
2023-04-26T12:51:34.445Z,2.70
2023-04-26T12:54:01.067Z,2.50
2023-04-26T12:56:29.484Z,2.38
2023-04-26T12:58:56.224Z,2.80
2023-04-26T13:01:22.942Z,2.85
2023-04-26T13:03:49.819Z,2.75
2023-04-26T13:06:16.728Z,2.47
2023-04-26T13:08:43.430Z,2.88
2023-04-26T13:11:10.032Z,2.72
2023-04-26T13:13:43.622Z,2.67
2023-04-26T13:16:12.552Z,3.00
2023-04-26T13:18:39.917Z,2.40
2023-04-26T13:21:06.772Z,2.63
2023-04-26T13:23:33.276Z,2.35
2023-04-26T13:25:59.956Z,2.33
2023-04-26T13:28:26.653Z,2.47
2023-04-26T13:30:55.698Z,2.90
2023-04-26T13:33:22.348Z,2.58
2023-04-26T13:35:48.968Z,2.38
2023-04-26T13:38:16.478Z,3.30
2023-04-26T13:40:43.897Z,2.40
2023-04-26T13:43:10.628Z,3.38
2023-04-26T13:45:37.306Z,2.47
2023-04-26T13:48:04.132Z,2.75
2023-04-26T13:50:31.479Z,2.53
2023-04-26T13:52:58.160Z,2.45
2023-04-26T13:55:25.611Z,3.10
2023-04-26T13:57:52.174Z,2.92
2023-04-26T14:00:19.186Z,3.03
2023-04-26T14:02:47.410Z,3.22
2023-04-26T14:05:14.379Z,2.20
2023-04-26T14:07:44.405Z,2.78
2023-04-26T14:10:12.143Z,2.60
2023-04-26T14:12:39.143Z,3.00
2023-04-26T14:15:06.599Z,3.20
2023-04-26T14:17:33.643Z,2.90
2023-04-26T14:20:00.695Z,2.53
2023-04-26T14:22:27.705Z,2.85
2023-04-26T14:24:54.300Z,3.17
2023-04-26T14:27:21.007Z,2.90
2023-04-26T14:29:47.654Z,2.70
2023-04-26T14:32:14.208Z,2.97
2023-04-26T14:34:40.885Z,2.88
2023-04-26T14:37:07.750Z,3.28
2023-04-26T14:39:34.506Z,3.15
2023-04-26T14:42:01.739Z,3.13
2023-04-26T14:44:28.297Z,5.13
2023-04-26T14:46:54.830Z,4.07
2023-04-26T14:49:21.319Z,3.80
2023-04-26T14:51:47.980Z,4.47
2023-04-26T14:54:15.464Z,4.57
2023-04-26T14:56:42.182Z,3.03
2023-04-26T14:59:08.727Z,8.40
2023-04-26T15:01:35.483Z,5.00
2023-04-26T15:04:02.201Z,3.65
2023-04-26T15:06:30.698Z,5.47
2023-04-26T15:08:57.431Z,3.35
2023-04-26T15:11:24.003Z,3.50
2023-04-26T15:13:50.553Z,2.80
2023-04-26T15:16:17.267Z,2.88
2023-04-26T15:18:44.156Z,3.17
2023-04-26T15:21:18.979Z,5.90
2023-04-26T15:23:45.592Z,3.58
2023-04-26T15:26:12.172Z,3.13
2023-04-26T15:28:38.949Z,3.05
2023-04-26T15:31:08.730Z,3.72
2023-04-26T15:33:35.615Z,3.60
2023-04-26T15:36:02.450Z,3.85
2023-04-26T15:38:29.108Z,3.03
2023-04-26T15:40:55.788Z,3.42
2023-04-26T15:43:22.369Z,3.38
2023-04-26T15:45:49.580Z,3.00
2023-04-26T15:48:16.436Z,3.40
2023-04-26T15:50:43.090Z,3.50
2023-04-26T15:53:09.992Z,3.13
2023-04-26T15:55:36.749Z,3.25
2023-04-26T15:58:03.511Z,3.00
2023-04-26T16:00:31.615Z,2.88
2023-04-26T16:02:58.339Z,2.72
2023-04-26T16:05:25.773Z,2.17
2023-04-26T16:07:52.422Z,2.25
2023-04-26T16:10:19.124Z,2.67
2023-04-26T16:12:45.710Z,2.75
2023-04-26T16:15:12.339Z,2.90
2023-04-26T16:17:39.355Z,2.65
2023-04-26T16:20:07.986Z,2.53
2023-04-26T16:22:35.757Z,2.67
2023-04-26T16:25:04.041Z,2.85
2023-04-26T16:27:30.639Z,4.95
2023-04-26T16:29:57.542Z,3.05
2023-04-26T16:32:26.299Z,3.05
2023-04-26T16:34:53.181Z,2.90
2023-04-26T16:37:19.881Z,3.00
2023-04-26T16:39:46.552Z,4.03
2023-04-26T16:42:13.131Z,3.58
2023-04-26T16:44:40.736Z,3.30
2023-04-26T16:47:07.328Z,2.55
2023-04-26T16:49:34.196Z,2.58
2023-04-26T16:52:01.705Z,2.60
2023-04-26T16:54:28.431Z,3.75
2023-04-26T16:56:55.085Z,3.00
2023-04-26T16:59:21.674Z,3.58
2023-04-26T17:01:48.342Z,3.40
2023-04-26T17:04:15.106Z,2.80
2023-04-26T17:06:41.709Z,2.95
2023-04-26T17:09:08.584Z,5.05
2023-04-26T17:11:37.239Z,7.93
2023-04-26T17:14:04.650Z,4.22
2023-04-26T17:16:31.680Z,3.10
2023-04-26T17:18:58.552Z,3.90
2023-04-26T17:21:26.156Z,3.47
2023-04-26T17:23:52.751Z,4.53
2023-04-26T17:26:19.372Z,4.07
2023-04-26T17:28:46.436Z,3.70
2023-04-26T17:31:13.206Z,3.60
2023-04-26T17:33:39.761Z,4.18
2023-04-26T17:36:06.550Z,4.07
2023-04-26T17:38:33.202Z,3.97
2023-04-26T17:41:00.093Z,14.38
2023-04-26T17:43:26.785Z,3.83
2023-04-26T17:45:53.434Z,2.90
2023-04-26T17:48:20.155Z,4.18
2023-04-26T17:50:46.881Z,3.40
2023-04-26T17:53:13.507Z,2.67
2023-04-26T17:55:40.511Z,3.50
2023-04-26T17:58:07.060Z,2.72
2023-04-26T18:00:33.967Z,2.33
2023-04-26T18:03:03.014Z,3.10
2023-04-26T18:05:29.803Z,2.30
2023-04-26T18:07:56.555Z,2.80
2023-04-26T18:10:23.249Z,3.35
2023-04-26T18:12:49.873Z,3.00
2023-04-26T18:15:16.392Z,2.72
2023-04-26T18:17:43.584Z,3.30
2023-04-26T18:20:12.942Z,3.00
2023-04-26T18:22:39.887Z,3.22
2023-04-26T18:25:06.807Z,2.63
2023-04-26T18:27:34.696Z,3.20
2023-04-26T18:30:01.349Z,3.28
2023-04-26T18:32:27.970Z,2.90
2023-04-26T18:34:54.660Z,2.90
2023-04-26T18:37:21.450Z,4.20
2023-04-26T18:39:48.764Z,5.20
2023-04-26T18:42:15.643Z,3.90
2023-04-26T18:44:42.265Z,3.70
2023-04-26T18:47:08.886Z,2.90
2023-04-26T18:49:42.057Z,3.33
2023-04-26T18:52:11.113Z,3.35
2023-04-26T18:54:38.864Z,2.70
2023-04-26T18:57:05.601Z,2.53
2023-04-26T18:59:32.449Z,2.97
2023-04-26T19:01:59.087Z,2.95
2023-04-26T19:04:26.373Z,3.05
2023-04-26T19:06:53.228Z,3.38
2023-04-26T19:09:21.645Z,3.30
2023-04-26T19:11:48.183Z,3.85
2023-04-26T19:14:14.753Z,3.83
2023-04-26T19:16:41.447Z,3.08
2023-04-26T19:19:08.033Z,3.33
2023-04-26T19:21:35.061Z,3.28
2023-04-26T19:24:01.565Z,3.95
2023-04-26T19:26:28.108Z,2.85
2023-04-26T19:28:55.799Z,3.50
2023-04-26T19:31:22.859Z,2.92
2023-04-26T19:33:49.500Z,3.03
2023-04-26T19:36:16.051Z,3.22
2023-04-26T19:38:42.658Z,3.17
2023-04-26T19:41:09.204Z,3.47
2023-04-26T19:43:35.839Z,3.10
2023-04-26T19:46:10.986Z,3.75
2023-04-26T19:48:37.641Z,2.67
2023-04-26T19:51:04.261Z,3.72
2023-04-26T19:53:30.896Z,3.65
2023-04-26T19:55:57.435Z,3.85
2023-04-26T19:58:24.537Z,4.32
2023-04-26T20:00:51.275Z,4.15
2023-04-26T20:03:18.049Z,4.32
2023-04-26T20:05:44.662Z,4.15
2023-04-26T20:08:11.189Z,4.25
2023-04-26T20:10:37.879Z,4.53
2023-04-26T20:13:04.516Z,4.13
2023-04-26T20:15:33.016Z,3.60
2023-04-26T20:18:02.195Z,5.03
2023-04-26T20:20:29.208Z,4.32
2023-04-26T20:22:55.784Z,7.05
2023-04-26T20:25:22.484Z,6.95
2023-04-26T20:27:49.090Z,6.32
2023-04-26T20:30:15.873Z,6.13
2023-04-26T20:32:42.998Z,6.45
2023-04-26T20:35:10.042Z,5.88
2023-04-26T20:37:36.733Z,5.50
2023-04-26T20:40:03.832Z,5.53
2023-04-26T20:42:30.451Z,5.25
2023-04-26T20:44:57.404Z,4.70
2023-04-26T20:47:24.515Z,5.25
2023-04-26T20:49:51.101Z,4.80
2023-04-26T20:52:17.649Z,4.35
2023-04-26T20:54:44.187Z,5.18
2023-04-26T20:57:10.964Z,4.20
2023-04-26T20:59:37.781Z,4.38
2023-04-26T21:02:05.015Z,4.45
2023-04-26T21:04:31.952Z,4.45
2023-04-26T21:06:58.681Z,5.07
2023-04-26T21:09:25.399Z,4.53
2023-04-26T21:11:51.998Z,4.50
2023-04-26T21:14:18.617Z,4.05
2023-04-26T21:16:45.253Z,3.97
2023-04-26T21:19:11.998Z,3.50
2023-04-26T21:21:38.663Z,3.72
2023-04-26T21:24:05.498Z,4.25
2023-04-26T21:26:32.144Z,3.75
2023-04-26T21:28:58.790Z,4.50
2023-04-26T21:31:25.723Z,4.70
2023-04-26T21:33:52.686Z,4.10
2023-04-26T21:36:19.368Z,3.28
2023-04-26T21:38:45.968Z,4.05
2023-04-26T21:41:12.814Z,3.90
2023-04-26T21:43:39.437Z,3.05
2023-04-26T21:46:07.880Z,4.63
2023-04-26T21:48:34.967Z,4.97
2023-04-26T21:51:01.721Z,4.07
2023-04-26T21:53:28.651Z,3.47
2023-04-26T21:55:55.586Z,3.22
2023-04-26T21:58:23.214Z,3.75
2023-04-26T22:00:50.241Z,3.30
2023-04-26T22:03:17.293Z,3.30
2023-04-26T22:05:44.223Z,3.47
2023-04-26T22:08:10.904Z,3.28
2023-04-26T22:10:37.547Z,3.08
2023-04-26T22:13:05.168Z,3.30
2023-04-26T22:15:32.195Z,3.50
2023-04-26T22:17:59.077Z,2.78
2023-04-26T22:20:26.465Z,3.58
2023-04-26T22:22:53.587Z,3.03
2023-04-26T22:25:20.343Z,3.28
2023-04-26T22:27:47.014Z,3.70
2023-04-26T22:30:24.684Z,3.28
2023-04-26T22:32:54.688Z,3.25
2023-04-26T22:35:23.137Z,3.13
2023-04-26T22:37:49.925Z,3.20
2023-04-26T22:40:17.214Z,3.10
2023-04-26T22:42:43.855Z,2.95
2023-04-26T22:45:11.948Z,3.42
2023-04-26T22:47:39.721Z,3.58
2023-04-26T22:50:07.499Z,3.20
2023-04-26T22:52:35.068Z,3.00
2023-04-26T22:55:01.953Z,3.97
2023-04-26T22:57:29.669Z,3.22
2023-04-26T22:59:56.722Z,3.55
2023-04-26T23:02:23.815Z,3.42
2023-04-26T23:04:50.594Z,3.65
2023-04-26T23:07:17.257Z,4.00
2023-04-26T23:09:43.902Z,4.00
2023-04-26T23:12:10.616Z,4.68
2023-04-26T23:14:38.242Z,4.57
2023-04-26T23:17:05.696Z,3.95
2023-04-26T23:19:33.121Z,3.97
2023-04-26T23:22:00.013Z,4.47
2023-04-26T23:24:27.755Z,4.10
2023-04-26T23:26:54.302Z,4.75
2023-04-26T23:29:20.955Z,4.15
2023-04-26T23:31:47.672Z,4.35
2023-04-26T23:34:14.349Z,5.28
2023-04-26T23:36:42.044Z,4.25
2023-04-26T23:39:08.926Z,4.97
2023-04-26T23:41:35.791Z,6.28
2023-04-26T23:44:02.459Z,5.72
2023-04-26T23:46:29.168Z,5.13
2023-04-26T23:48:55.891Z,5.05
2023-04-26T23:51:23.541Z,4.82
2023-04-26T23:53:50.120Z,5.85
2023-04-26T23:56:16.709Z,5.07
2023-04-26T23:58:43.350Z,5.07
